Time;durP1;ratioP1;P1;durP2;ratioP2;P2;SDS_P1;SDS_P2;PMS_P1;PMS_P2;Temp;Humidity;BMP_temperature;BMP_pressure;BME280_temperature;BME280_humidity;BME280_pressure;Samples;Min_cycle;Max_cycle;Signal;HPM_P1;HPM_P2
2022/02/05 00:00:38;;;;;;;11.48;2.80;;;;;;;;;;5005059;28;20084;-91
2022/02/05 00:05:37;;;;;;;14.52;2.65;;;;;;;;;;5007607;28;20068;-86
2022/02/05 00:08:22;;;;;;;17.52;3.40;;;;;;;;;;5004854;28;20045;-87
2022/02/05 00:42:59;;;;;;;22.13;3.25;;;;;;;;;;4996187;28;20127;-82
2022/02/05 00:45:27;;;;;;;18.45;2.45;;;;;;;;;;4987368;28;20038;-82
2022/02/05 00:47:55;;;;;;;11.57;1.90;;;;;;;;;;4968888;28;20396;-83
2022/02/05 00:50:25;;;;;;;18.25;3.53;;;;;;;;;;4995510;28;20072;-83
2022/02/05 00:54:01;;;;;;;18.83;3.28;;;;;;;;;;4996809;28;20525;-81
2022/02/05 00:55:54;;;;;;;21.15;2.72;;;;;;;;;;4998060;28;20052;-81
2022/02/05 00:58:20;;;;;;;20.00;2.63;;;;;;;;;;5013044;28;20408;-82
2022/02/05 01:00:46;;;;;;;23.27;3.10;;;;;;;;;;4972588;28;20056;-83
2022/02/05 01:03:12;;;;;;;16.60;2.72;;;;;;;;;;5009296;28;20037;-83
2022/02/05 01:05:38;;;;;;;21.23;4.00;;;;;;;;;;4996424;28;20049;-83
2022/02/05 01:08:04;;;;;;;25.48;4.30;;;;;;;;;;4976851;28;20050;-83
2022/02/05 01:10:30;;;;;;;24.58;3.42;;;;;;;;;;5008721;28;20488;-83
2022/02/05 01:13:02;;;;;;;20.52;3.47;;;;;;;;;;4996850;28;20041;-82
2022/02/05 01:15:35;;;;;;;25.95;5.13;;;;;;;;;;4978060;28;20053;-83
2022/02/05 01:18:05;;;;;;;25.90;3.40;;;;;;;;;;4995056;28;20045;-82
2022/02/05 01:23:01;;;;;;;27.77;4.07;;;;;;;;;;4995033;28;20188;-82
2022/02/05 01:25:33;;;;;;;26.83;3.95;;;;;;;;;;4999384;28;20045;-83
2022/02/05 01:28:07;;;;;;;23.63;3.58;;;;;;;;;;4972411;28;20047;-82
2022/02/05 01:30:37;;;;;;;25.80;4.22;;;;;;;;;;5010826;28;20195;-83
2022/02/05 01:49:38;;;;;;;34.15;4.65;;;;;;;;;;4930474;28;20586;-84
2022/02/05 01:53:02;;;;;;;35.03;4.82;;;;;;;;;;4986752;28;20045;-83
2022/02/05 01:55:10;;;;;;;28.13;4.25;;;;;;;;;;5003426;28;20562;-82
2022/02/05 01:57:56;;;;;;;21.15;3.60;;;;;;;;;;4991364;28;20381;-83
2022/02/05 02:06:08;;;;;;;15.43;2.42;;;;;;;;;;5000298;28;20049;-83
2022/02/05 02:12:23;;;;;;;25.63;2.90;;;;;;;;;;4996742;28;20088;-84
2022/02/05 02:22:16;;;;;;;21.23;3.92;;;;;;;;;;4992260;28;20550;-83
2022/02/05 02:27:52;;;;;;;28.50;4.38;;;;;;;;;;5001314;28;20396;-83
2022/02/05 02:30:23;;;;;;;18.95;3.65;;;;;;;;;;4990454;28;20049;-83
2022/02/05 02:32:57;;;;;;;27.73;3.38;;;;;;;;;;4980717;28;20452;-83
2022/02/05 02:35:26;;;;;;;27.23;3.58;;;;;;;;;;4986403;28;20553;-83
2022/02/05 02:38:05;;;;;;;21.02;3.17;;;;;;;;;;5013884;28;20049;-83
2022/02/05 02:41:01;;;;;;;29.73;3.90;;;;;;;;;;4980663;28;20053;-83
2022/02/05 02:43:24;;;;;;;35.42;4.30;;;;;;;;;;4996914;28;20132;-84
2022/02/05 02:45:50;;;;;;;21.45;4.10;;;;;;;;;;5005149;28;20078;-83
2022/02/05 02:48:17;;;;;;;28.90;4.90;;;;;;;;;;4980443;28;20370;-84
2022/02/05 02:59:04;;;;;;;24.67;4.05;;;;;;;;;;5005950;28;20042;-83
2022/02/05 03:01:32;;;;;;;27.58;5.35;;;;;;;;;;5013155;28;20124;-83
2022/02/05 03:03:58;;;;;;;26.35;3.42;;;;;;;;;;4997821;28;20053;-83
2022/02/05 03:06:24;;;;;;;17.40;2.28;;;;;;;;;;5013705;28;20080;-83
2022/02/05 03:08:50;;;;;;;19.52;2.60;;;;;;;;;;5013058;28;20144;-82
2022/02/05 03:11:19;;;;;;;26.48;3.20;;;;;;;;;;4974046;28;20041;-83
2022/02/05 03:13:45;;;;;;;18.95;2.72;;;;;;;;;;4978428;28;20099;-82
2022/02/05 03:16:21;;;;;;;21.05;3.15;;;;;;;;;;4991643;28;20088;-83
2022/02/05 03:21:22;;;;;;;16.20;2.67;;;;;;;;;;5012654;28;20603;-84
2022/02/05 03:23:48;;;;;;;21.92;3.08;;;;;;;;;;4981582;28;20507;-84
2022/02/05 03:26:14;;;;;;;24.73;3.15;;;;;;;;;;4990812;28;20084;-84
2022/02/05 03:28:40;;;;;;;23.73;3.00;;;;;;;;;;4981470;28;20081;-83
2022/02/05 03:31:07;;;;;;;21.13;3.45;;;;;;;;;;4995904;28;20557;-82
2022/02/05 03:33:33;;;;;;;28.88;3.42;;;;;;;;;;4997762;28;20092;-83
2022/02/05 03:35:59;;;;;;;21.88;3.03;;;;;;;;;;4974056;28;20073;-83
2022/02/05 03:38:28;;;;;;;22.23;2.90;;;;;;;;;;5009824;28;20132;-82
2022/02/05 03:40:54;;;;;;;16.05;3.67;;;;;;;;;;4980624;28;20057;-83
2022/02/05 03:43:20;;;;;;;19.35;2.25;;;;;;;;;;4981605;28;20084;-82
2022/02/05 03:45:46;;;;;;;20.17;3.00;;;;;;;;;;4978867;28;20049;-83
2022/02/05 03:48:12;;;;;;;24.58;3.30;;;;;;;;;;4998211;28;20124;-83
2022/02/05 03:50:38;;;;;;;13.77;2.20;;;;;;;;;;4979091;28;20053;-82
2022/02/05 03:53:07;;;;;;;23.27;2.92;;;;;;;;;;4982426;28;20049;-82
2022/02/05 03:55:35;;;;;;;18.50;2.80;;;;;;;;;;4996755;28;20041;-82
2022/02/05 03:58:01;;;;;;;25.40;5.55;;;;;;;;;;5012916;28;20080;-83
2022/02/05 04:00:27;;;;;;;21.27;3.97;;;;;;;;;;4985929;28;20085;-84
2022/02/05 04:02:53;;;;;;;20.40;2.88;;;;;;;;;;4995389;28;20490;-83
2022/02/05 04:05:19;;;;;;;20.15;3.05;;;;;;;;;;4978253;28;20128;-83
2022/02/05 04:07:50;;;;;;;18.08;2.72;;;;;;;;;;4997403;28;20042;-83
2022/02/05 04:10:22;;;;;;;19.50;3.03;;;;;;;;;;4996957;28;20045;-83
2022/02/05 04:18:17;;;;;;;14.13;2.25;;;;;;;;;;4996853;28;20510;-83
2022/02/05 04:20:43;;;;;;;19.38;2.22;;;;;;;;;;4984184;28;20049;-84
2022/02/05 04:23:09;;;;;;;23.75;2.65;;;;;;;;;;4996498;28;20103;-84
2022/02/05 04:25:35;;;;;;;14.45;2.35;;;;;;;;;;5011070;28;20389;-84
2022/02/05 04:28:01;;;;;;;16.60;1.98;;;;;;;;;;4996266;28;20088;-84
2022/02/05 04:30:27;;;;;;;22.95;2.92;;;;;;;;;;5010897;28;20308;-84
2022/02/05 04:32:53;;;;;;;14.70;2.58;;;;;;;;;;5009776;28;20037;-84
2022/02/05 04:35:19;;;;;;;13.30;2.47;;;;;;;;;;4995413;28;20083;-84
2022/02/05 04:37:49;;;;;;;16.05;2.45;;;;;;;;;;4970251;28;20041;-84
2022/02/05 04:51:11;;;;;;;17.67;2.13;;;;;;;;;;4995103;28;20049;-84
2022/02/05 04:56:00;;;;;;;17.95;2.78;;;;;;;;;;5012664;28;20107;-82
2022/02/05 05:01:25;;;;;;;16.98;4.30;;;;;;;;;;5003005;28;20527;-84
2022/02/05 05:09:15;;;;;;;19.23;2.35;;;;;;;;;;5013084;28;20056;-83
2022/02/05 05:21:47;;;;;;;14.40;2.58;;;;;;;;;;5009544;28;20476;-83
2022/02/05 05:24:13;;;;;;;19.45;3.20;;;;;;;;;;5010752;28;20369;-83
2022/02/05 05:26:39;;;;;;;16.80;2.85;;;;;;;;;;4979698;28;20058;-83
2022/02/05 05:29:05;;;;;;;23.52;3.13;;;;;;;;;;5011274;28;20053;-82
2022/02/05 05:31:31;;;;;;;12.85;2.17;;;;;;;;;;4977139;28;20084;-82
2022/02/05 05:33:57;;;;;;;21.85;3.45;;;;;;;;;;4978768;28;20049;-83
2022/02/05 05:36:23;;;;;;;21.83;3.80;;;;;;;;;;4978723;28;20103;-83
2022/02/05 05:38:49;;;;;;;18.60;3.35;;;;;;;;;;4995108;28;20049;-82
2022/02/05 05:41:16;;;;;;;22.75;2.85;;;;;;;;;;4994972;28;20473;-83
2022/02/05 05:44:02;;;;;;;32.55;4.43;;;;;;;;;;4972202;28;20052;-83
2022/02/05 05:46:34;;;;;;;20.92;2.95;;;;;;;;;;4998791;28;20050;-83
2022/02/05 05:49:45;;;;;;;30.50;3.53;;;;;;;;;;5011857;28;20088;-85
2022/02/05 05:51:53;;;;;;;18.20;2.53;;;;;;;;;;5008792;28;20049;-83
2022/02/05 05:54:19;;;;;;;24.48;2.97;;;;;;;;;;4999034;28;20057;-85
2022/02/05 05:56:46;;;;;;;22.65;3.42;;;;;;;;;;4983888;28;20132;-83
2022/02/05 05:59:12;;;;;;;27.85;3.10;;;;;;;;;;5000345;28;20094;-84
2022/02/05 06:01:38;;;;;;;21.02;3.72;;;;;;;;;;4999976;28;20053;-84
2022/02/05 06:04:04;;;;;;;23.27;3.08;;;;;;;;;;5000150;28;20049;-85
2022/02/05 06:06:30;;;;;;;23.48;2.40;;;;;;;;;;4993760;28;20056;-85
2022/02/05 06:08:57;;;;;;;20.08;3.40;;;;;;;;;;4982615;28;20050;-83
2022/02/05 06:11:23;;;;;;;15.40;2.53;;;;;;;;;;4998362;28;20498;-84
2022/02/05 06:13:50;;;;;;;18.30;3.13;;;;;;;;;;4983124;28;20373;-84
2022/02/05 06:16:19;;;;;;;19.80;3.35;;;;;;;;;;4999600;28;20180;-84
2022/02/05 06:18:45;;;;;;;22.83;3.88;;;;;;;;;;4991787;28;20041;-86
2022/02/05 06:21:11;;;;;;;21.80;3.33;;;;;;;;;;5008764;28;20511;-82
2022/02/05 06:23:37;;;;;;;13.75;2.40;;;;;;;;;;4997749;28;20562;-83
2022/02/05 06:26:03;;;;;;;17.67;2.35;;;;;;;;;;4998986;28;20076;-81
2022/02/05 06:28:29;;;;;;;16.23;2.47;;;;;;;;;;4998518;28;20033;-82
2022/02/05 06:30:55;;;;;;;17.25;2.42;;;;;;;;;;4996640;28;20050;-81
2022/02/05 06:33:21;;;;;;;23.42;3.20;;;;;;;;;;4996650;28;20076;-84
2022/02/05 06:35:47;;;;;;;18.75;2.67;;;;;;;;;;4995931;28;20091;-83
2022/02/05 06:38:14;;;;;;;17.27;3.65;;;;;;;;;;4997952;28;20041;-83
2022/02/05 06:40:40;;;;;;;22.05;3.28;;;;;;;;;;5000687;28;20451;-82
2022/02/05 06:43:06;;;;;;;19.00;2.85;;;;;;;;;;4997264;28;20538;-79
2022/02/05 06:45:32;;;;;;;22.23;3.35;;;;;;;;;;5012393;28;20472;-80
2022/02/05 06:47:59;;;;;;;12.52;2.50;;;;;;;;;;5014499;28;20045;-78
2022/02/05 06:50:26;;;;;;;20.73;2.50;;;;;;;;;;4976197;28;20042;-81
2022/02/05 06:52:52;;;;;;;23.23;3.55;;;;;;;;;;5018960;28;20049;-78
2022/02/05 06:55:18;;;;;;;20.38;2.45;;;;;;;;;;4996052;28;20156;-79
2022/02/05 06:57:44;;;;;;;15.18;2.53;;;;;;;;;;4981874;28;20560;-79
2022/02/05 07:00:10;;;;;;;20.00;2.38;;;;;;;;;;5010689;28;20064;-79
2022/02/05 07:02:36;;;;;;;16.25;2.65;;;;;;;;;;4976217;28;20057;-79
2022/02/05 07:05:03;;;;;;;16.77;2.40;;;;;;;;;;4977045;28;20060;-78
2022/02/05 07:07:29;;;;;;;20.42;2.60;;;;;;;;;;4992700;28;20068;-79
2022/02/05 07:09:55;;;;;;;21.63;3.53;;;;;;;;;;5015167;28;20459;-79
2022/02/05 07:12:21;;;;;;;23.20;3.63;;;;;;;;;;4998872;28;20496;-80
2022/02/05 07:17:42;;;;;;;17.88;2.30;;;;;;;;;;4990679;28;20050;-80
2022/02/05 07:20:20;;;;;;;17.40;2.08;;;;;;;;;;5012461;28;20076;-81
2022/02/05 07:23:10;;;;;;;20.58;2.35;;;;;;;;;;5000285;28;20056;-81
2022/02/05 07:31:16;;;;;;;14.50;2.63;;;;;;;;;;5009191;28;20046;-76
2022/02/05 07:33:42;;;;;;;18.20;1.80;;;;;;;;;;5013885;28;20056;-78
2022/02/05 07:36:08;;;;;;;18.10;3.45;;;;;;;;;;5013437;28;20095;-76
2022/02/05 07:38:34;;;;;;;20.52;2.90;;;;;;;;;;4995098;28;20045;-77
2022/02/05 07:41:00;;;;;;;20.23;3.97;;;;;;;;;;4982467;28;20049;-81
2022/02/05 07:43:28;;;;;;;18.50;2.80;;;;;;;;;;4981800;28;20052;-81
2022/02/05 07:45:54;;;;;;;22.55;3.05;;;;;;;;;;4995762;28;20134;-83
2022/02/05 07:48:21;;;;;;;16.75;2.53;;;;;;;;;;5003650;28;20488;-85
2022/02/05 07:50:47;;;;;;;21.60;2.95;;;;;;;;;;5016521;28;20037;-82
2022/02/05 07:53:13;;;;;;;15.02;2.55;;;;;;;;;;5016864;28;20070;-81
2022/02/05 07:55:39;;;;;;;16.90;2.33;;;;;;;;;;5029472;28;20049;-84
2022/02/05 07:58:05;;;;;;;20.83;2.58;;;;;;;;;;4979196;28;20129;-83
2022/02/05 08:00:31;;;;;;;22.80;3.00;;;;;;;;;;4997272;28;20103;-87
2022/02/05 08:02:58;;;;;;;23.83;2.47;;;;;;;;;;4994404;28;20128;-82
2022/02/05 08:05:24;;;;;;;40.15;3.80;;;;;;;;;;4984222;28;20488;-82
2022/02/05 08:07:51;;;;;;;19.08;2.95;;;;;;;;;;4999055;28;20047;-80
2022/02/05 08:10:20;;;;;;;19.33;3.30;;;;;;;;;;5007209;28;20050;-81
2022/02/05 08:12:52;;;;;;;21.67;3.97;;;;;;;;;;5014771;28;20053;-80
2022/02/05 08:15:22;;;;;;;22.55;3.13;;;;;;;;;;5006924;28;20084;-81
2022/02/05 08:17:49;;;;;;;20.55;2.83;;;;;;;;;;4985249;28;20401;-83
2022/02/05 08:20:15;;;;;;;14.50;3.22;;;;;;;;;;4977374;28;20494;-84
2022/02/05 08:22:41;;;;;;;20.45;3.47;;;;;;;;;;4952749;28;20046;-87
2022/02/05 08:25:08;;;;;;;18.73;2.55;;;;;;;;;;4966658;28;20065;-83
2022/02/05 08:27:35;;;;;;;14.73;2.53;;;;;;;;;;4974626;28;20125;-82
2022/02/05 08:30:06;;;;;;;16.80;2.70;;;;;;;;;;4977950;28;20086;-86
2022/02/05 08:32:32;;;;;;;19.42;3.08;;;;;;;;;;4980247;28;20051;-82
2022/02/05 08:35:00;;;;;;;15.93;2.88;;;;;;;;;;4996425;28;20054;-84
2022/02/05 08:37:35;;;;;;;15.60;2.65;;;;;;;;;;4975658;28;20053;-79
2022/02/05 08:40:02;;;;;;;28.95;3.50;;;;;;;;;;4990076;28;20134;-79
2022/02/05 08:42:28;;;;;;;13.10;2.63;;;;;;;;;;4958163;28;20053;-78
2022/02/05 08:44:54;;;;;;;20.42;2.72;;;;;;;;;;4969811;28;20066;-81
2022/02/05 08:47:20;;;;;;;27.15;3.53;;;;;;;;;;4987544;28;20436;-82
2022/02/05 08:49:46;;;;;;;19.63;4.60;;;;;;;;;;4989494;28;20065;-84
2022/02/05 08:52:13;;;;;;;19.30;3.42;;;;;;;;;;4987645;28;20070;-85
2022/02/05 08:54:39;;;;;;;17.98;2.90;;;;;;;;;;4970748;28;20054;-80
2022/02/05 08:57:07;;;;;;;16.67;3.53;;;;;;;;;;4971098;28;20042;-83
2022/02/05 08:59:49;;;;;;;17.45;3.58;;;;;;;;;;4980033;28;20060;-82
2022/02/05 09:02:26;;;;;;;17.52;3.15;;;;;;;;;;4973823;28;20136;-78
2022/02/05 09:07:37;;;;;;;20.38;3.38;;;;;;;;;;4991953;28;20042;-88
2022/02/05 09:10:11;;;;;;;20.17;4.05;;;;;;;;;;4992722;28;20105;-87
2022/02/05 09:15:07;;;;;;;23.90;3.38;;;;;;;;;;4991700;28;20051;-88
2022/02/05 09:17:33;;;;;;;21.80;3.75;;;;;;;;;;5014231;28;20057;-86
2022/02/05 09:20:00;;;;;;;21.98;4.05;;;;;;;;;;4993319;28;20038;-85
2022/02/05 09:22:29;;;;;;;24.30;3.78;;;;;;;;;;5011721;28;20136;-87
2022/02/05 09:24:58;;;;;;;20.95;3.65;;;;;;;;;;4995881;28;20162;-85
2022/02/05 09:27:28;;;;;;;22.35;3.40;;;;;;;;;;4998355;28;20508;-84
2022/02/05 09:32:23;;;;;;;21.75;3.30;;;;;;;;;;5012204;28;20056;-91
2022/02/05 09:34:49;;;;;;;25.40;4.13;;;;;;;;;;5008349;28;20052;-84
2022/02/05 09:37:15;;;;;;;24.23;3.25;;;;;;;;;;4995408;28;20427;-89
2022/02/05 09:39:43;;;;;;;21.48;3.03;;;;;;;;;;4995184;28;20041;-83
2022/02/05 09:42:13;;;;;;;21.42;3.97;;;;;;;;;;4996328;28;20049;-88
2022/02/05 09:44:39;;;;;;;20.42;3.33;;;;;;;;;;4996527;28;20488;-81
2022/02/05 09:47:06;;;;;;;24.50;3.55;;;;;;;;;;5011244;28;20045;-87
2022/02/05 09:49:32;;;;;;;19.27;3.38;;;;;;;;;;5004016;28;20042;-88
2022/02/05 09:52:10;;;;;;;28.05;4.38;;;;;;;;;;5004013;28;20069;-89
2022/02/05 09:54:38;;;;;;;23.80;3.22;;;;;;;;;;4994387;28;20057;-83
2022/02/05 09:57:04;;;;;;;23.52;4.03;;;;;;;;;;5009146;28;20129;-84
2022/02/05 09:59:38;;;;;;;16.35;3.55;;;;;;;;;;5023975;28;20204;-85
2022/02/05 10:02:23;;;;;;;21.75;4.45;;;;;;;;;;4998727;28;20054;-80
2022/02/05 10:05:08;;;;;;;19.83;3.35;;;;;;;;;;4978814;28;20052;-83
2022/02/05 10:07:36;;;;;;;19.98;4.07;;;;;;;;;;4996254;28;20061;-83
2022/02/05 10:10:04;;;;;;;20.38;4.07;;;;;;;;;;4998103;28;20053;-84
2022/02/05 10:12:30;;;;;;;20.58;4.03;;;;;;;;;;4989140;28;20089;-84
2022/02/05 10:14:57;;;;;;;24.63;3.63;;;;;;;;;;4993396;28;20042;-81
2022/02/05 10:17:37;;;;;;;19.63;4.18;;;;;;;;;;4988161;28;20054;-79
2022/02/05 10:20:04;;;;;;;26.33;4.65;;;;;;;;;;5004369;28;20100;-77
2022/02/05 10:22:38;;;;;;;18.38;3.75;;;;;;;;;;5013254;28;20304;-87
2022/02/05 10:25:13;;;;;;;24.23;3.05;;;;;;;;;;5011380;28;20057;-89
2022/02/05 10:27:41;;;;;;;14.38;3.20;;;;;;;;;;4995076;28;20045;-84
2022/02/05 10:30:09;;;;;;;21.63;3.45;;;;;;;;;;5010310;28;20096;-82
2022/02/05 10:32:40;;;;;;;30.05;3.72;;;;;;;;;;5012181;28;20041;-80
2022/02/05 10:41:00;;;;;;;19.77;2.88;;;;;;;;;;4981853;28;20084;-80
2022/02/05 10:43:34;;;;;;;21.13;3.28;;;;;;;;;;5012807;28;20152;-79
2022/02/05 10:46:04;;;;;;;16.25;2.78;;;;;;;;;;5016863;28;20080;-76
2022/02/05 10:48:31;;;;;;;20.88;3.45;;;;;;;;;;5010429;28;20424;-85
2022/02/05 10:51:00;;;;;;;18.23;3.28;;;;;;;;;;4996917;28;20056;-83
2022/02/05 10:53:43;;;;;;;19.15;3.45;;;;;;;;;;4994122;28;20041;-81
2022/02/05 10:56:18;;;;;;;19.63;3.47;;;;;;;;;;4983219;28;20058;-89
2022/02/05 11:06:54;;;;;;;20.13;4.10;;;;;;;;;;5023358;28;20080;-78
2022/02/05 11:09:39;;;;;;;19.90;4.00;;;;;;;;;;5015493;28;20069;-84
2022/02/05 11:12:48;;;;;;;19.05;3.17;;;;;;;;;;5016349;28;20045;-86
2022/02/05 11:20:01;;;;;;;16.48;2.75;;;;;;;;;;5013801;28;20069;-83
2022/02/05 11:22:31;;;;;;;17.25;3.42;;;;;;;;;;5011412;28;20538;-83
2022/02/05 11:24:58;;;;;;;24.17;3.28;;;;;;;;;;5012694;28;20072;-84
2022/02/05 11:27:24;;;;;;;21.42;3.47;;;;;;;;;;5014156;28;20060;-78
2022/02/05 11:29:50;;;;;;;16.38;3.33;;;;;;;;;;4994044;28;20052;-76
2022/02/05 11:32:20;;;;;;;19.42;3.17;;;;;;;;;;5032272;28;20038;-80
2022/02/05 11:34:51;;;;;;;25.77;4.57;;;;;;;;;;5014755;28;20129;-89
2022/02/05 11:37:17;;;;;;;26.00;3.10;;;;;;;;;;4999219;28;20037;-93
2022/02/05 11:39:50;;;;;;;21.30;2.83;;;;;;;;;;4999859;28;20076;-85
2022/02/05 11:42:36;;;;;;;25.70;4.32;;;;;;;;;;5011432;28;20073;-87
2022/02/05 11:45:38;;;;;;;19.02;3.03;;;;;;;;;;5013527;28;20056;-82
2022/02/05 11:48:23;;;;;;;15.02;2.45;;;;;;;;;;4931709;28;20414;-88
2022/02/05 11:51:07;;;;;;;13.07;2.40;;;;;;;;;;5005301;28;20068;-84
2022/02/05 11:53:53;;;;;;;17.98;2.50;;;;;;;;;;5011583;28;20041;-81
2022/02/05 11:56:19;;;;;;;17.70;2.50;;;;;;;;;;5003896;28;20176;-81
2022/02/05 11:58:55;;;;;;;21.33;3.65;;;;;;;;;;5012192;28;20110;-82
2022/02/05 12:01:35;;;;;;;15.70;2.83;;;;;;;;;;4991560;28;20086;-79
2022/02/05 12:04:12;;;;;;;16.50;2.65;;;;;;;;;;5026689;28;20144;-77
2022/02/05 12:07:00;;;;;;;17.67;3.20;;;;;;;;;;4996104;28;20132;-81
2022/02/05 12:09:46;;;;;;;23.35;3.00;;;;;;;;;;5021748;28;20071;-86
2022/02/05 12:12:35;;;;;;;16.90;3.60;;;;;;;;;;5010215;28;20049;-84
2022/02/05 12:15:17;;;;;;;16.20;2.28;;;;;;;;;;4995528;28;20057;-90
2022/02/05 12:18:07;;;;;;;22.25;2.88;;;;;;;;;;4989778;28;20096;-83
2022/02/05 12:21:05;;;;;;;18.52;4.13;;;;;;;;;;5013172;28;20207;-90
2022/02/05 12:26:17;;;;;;;16.58;2.88;;;;;;;;;;5011596;28;20045;-89
2022/02/05 12:28:47;;;;;;;18.25;3.50;;;;;;;;;;4996838;28;20053;-80
2022/02/05 12:31:25;;;;;;;11.30;2.38;;;;;;;;;;5010695;28;20441;-81
2022/02/05 12:34:02;;;;;;;16.35;3.58;;;;;;;;;;5009788;28;20049;-89
2022/02/05 12:36:29;;;;;;;20.02;2.83;;;;;;;;;;5028437;28;20041;-89
2022/02/05 12:38:56;;;;;;;18.25;3.33;;;;;;;;;;4996743;28;20033;-88
2022/02/05 12:41:22;;;;;;;15.82;3.83;;;;;;;;;;4996332;28;20103;-79
2022/02/05 12:43:56;;;;;;;18.23;3.88;;;;;;;;;;4993232;28;20157;-78
2022/02/05 12:46:24;;;;;;;15.15;3.33;;;;;;;;;;5010616;28;20052;-76
2022/02/05 12:48:55;;;;;;;18.30;2.85;;;;;;;;;;5010177;28;20508;-74
2022/02/05 12:51:27;;;;;;;23.20;3.38;;;;;;;;;;5029567;28;20083;-79
2022/02/05 12:54:14;;;;;;;14.85;2.83;;;;;;;;;;5010839;28;21973;-82
2022/02/05 12:56:41;;;;;;;17.60;3.17;;;;;;;;;;5030276;28;20044;-76
2022/02/05 12:59:12;;;;;;;15.98;2.85;;;;;;;;;;5012481;28;20086;-79
2022/02/05 13:01:39;;;;;;;12.57;3.00;;;;;;;;;;5027549;28;20107;-81
2022/02/05 13:04:44;;;;;;;15.45;3.10;;;;;;;;;;5026409;28;20084;-83
2022/02/05 13:07:21;;;;;;;20.92;3.08;;;;;;;;;;4948379;28;20051;-79
2022/02/05 13:10:02;;;;;;;15.25;2.10;;;;;;;;;;4953396;28;20047;-77
2022/02/05 13:12:36;;;;;;;16.65;3.03;;;;;;;;;;4989333;28;20099;-82
2022/02/05 13:15:24;;;;;;;18.10;3.13;;;;;;;;;;4994207;28;20041;-82
2022/02/05 13:36:03;;;;;;;14.05;3.05;;;;;;;;;;5010786;28;20129;-76
2022/02/05 13:38:35;;;;;;;10.02;1.98;;;;;;;;;;4993980;28;20048;-79
2022/02/05 13:41:02;;;;;;;8.63;2.00;;;;;;;;;;5006233;28;20053;-78
2022/02/05 13:43:42;;;;;;;16.73;2.40;;;;;;;;;;4990936;28;20578;-78
2022/02/05 13:46:13;;;;;;;11.75;1.98;;;;;;;;;;4994971;28;20041;-80
2022/02/05 13:48:39;;;;;;;15.07;2.83;;;;;;;;;;5006136;28;20476;-80
2022/02/05 13:51:06;;;;;;;19.45;3.72;;;;;;;;;;5010768;28;20045;-78
2022/02/05 13:53:32;;;;;;;16.70;2.30;;;;;;;;;;4988800;28;20107;-85
2022/02/05 13:56:03;;;;;;;17.25;2.53;;;;;;;;;;4982583;28;20053;-79
2022/02/05 13:58:37;;;;;;;19.42;2.38;;;;;;;;;;5007886;28;20041;-82
2022/02/05 14:01:03;;;;;;;14.73;2.58;;;;;;;;;;5012425;28;20056;-77
2022/02/05 14:03:31;;;;;;;11.68;2.95;;;;;;;;;;5009135;28;20050;-85
2022/02/05 14:06:05;;;;;;;15.98;2.33;;;;;;;;;;4990964;28;20602;-81
2022/02/05 14:08:37;;;;;;;12.50;2.35;;;;;;;;;;5025090;28;20050;-82
2022/02/05 14:11:05;;;;;;;12.48;2.45;;;;;;;;;;5011313;28;20545;-86
2022/02/05 14:13:32;;;;;;;17.05;2.88;;;;;;;;;;5010234;28;20559;-78
2022/02/05 14:16:00;;;;;;;15.52;2.60;;;;;;;;;;5014489;28;20054;-78
2022/02/05 14:18:27;;;;;;;13.75;2.78;;;;;;;;;;5032886;28;20067;-74
2022/02/05 14:20:57;;;;;;;10.98;1.98;;;;;;;;;;5029581;28;20412;-81
2022/02/05 14:23:24;;;;;;;11.50;2.28;;;;;;;;;;5015277;28;20045;-80
2022/02/05 14:25:56;;;;;;;17.15;2.33;;;;;;;;;;5016091;28;20060;-79
2022/02/05 14:28:32;;;;;;;15.95;2.42;;;;;;;;;;5015722;28;20045;-82
2022/02/05 17:32:48;;;;;;;17.77;2.92;;;;;;;;;;5388810;23;20061;-80
2022/02/05 17:35:14;;;;;;;25.83;3.75;;;;;;;;;;4851960;29;20535;-77
2022/02/05 17:37:42;;;;;;;22.23;3.88;;;;;;;;;;4857103;29;20049;-77
2022/02/05 17:40:09;;;;;;;28.08;5.20;;;;;;;;;;4842189;29;20042;-77
2022/02/05 17:42:37;;;;;;;32.10;5.55;;;;;;;;;;4840357;29;20140;-77
2022/02/05 17:45:04;;;;;;;17.90;3.92;;;;;;;;;;4864689;29;20049;-76
2022/02/05 17:47:31;;;;;;;28.70;4.82;;;;;;;;;;4842557;29;20090;-79
2022/02/05 17:49:57;;;;;;;27.67;4.50;;;;;;;;;;4862041;29;20116;-81
2022/02/05 17:52:23;;;;;;;30.98;3.95;;;;;;;;;;4861324;29;20112;-75
2022/02/05 17:54:53;;;;;;;25.10;3.83;;;;;;;;;;4857914;29;20135;-77
2022/02/05 17:57:19;;;;;;;23.23;4.50;;;;;;;;;;4866805;29;20140;-74
2022/02/05 17:59:46;;;;;;;25.50;4.40;;;;;;;;;;4877130;29;20060;-81
2022/02/05 18:02:15;;;;;;;25.70;4.35;;;;;;;;;;4860958;29;20205;-75
2022/02/05 18:10:46;;;;;;;41.83;4.63;;;;;;;;;;5206883;23;20120;-72
2022/02/05 18:12:45;;;;;;;27.23;3.97;;;;;;;;;;4838421;29;20060;-68
2022/02/05 18:15:11;;;;;;;30.55;4.68;;;;;;;;;;4852945;29;20061;-81
2022/02/05 18:17:37;;;;;;;31.40;4.32;;;;;;;;;;4843060;29;20049;-90
2022/02/05 18:20:04;;;;;;;29.08;4.70;;;;;;;;;;4839681;29;20049;-90
2022/02/05 18:22:30;;;;;;;27.13;5.70;;;;;;;;;;4848318;29;20048;-88
2022/02/05 18:24:56;;;;;;;39.75;5.05;;;;;;;;;;4845033;29;20412;-86
2022/02/05 18:27:23;;;;;;;18.80;3.95;;;;;;;;;;4841310;29;20049;-80
2022/02/05 18:29:50;;;;;;;26.05;3.45;;;;;;;;;;4842565;29;20056;-78
2022/02/05 18:32:16;;;;;;;23.35;3.80;;;;;;;;;;4852258;29;20061;-75
2022/02/05 18:34:42;;;;;;;29.13;4.80;;;;;;;;;;4856916;29;20080;-72
2022/02/05 18:37:09;;;;;;;31.83;4.20;;;;;;;;;;4840912;29;20493;-73
2022/02/05 18:39:40;;;;;;;27.70;4.50;;;;;;;;;;4853972;29;20118;-76
2022/02/05 18:42:13;;;;;;;24.60;4.55;;;;;;;;;;4841170;29;20057;-76
2022/02/05 18:44:39;;;;;;;24.73;4.85;;;;;;;;;;4852831;29;20053;-77
2022/02/05 18:47:05;;;;;;;24.90;4.00;;;;;;;;;;4838158;29;20057;-77
2022/02/05 18:49:31;;;;;;;24.45;4.10;;;;;;;;;;4856964;29;20044;-75
2022/02/05 18:51:57;;;;;;;23.42;3.97;;;;;;;;;;4856230;29;20064;-78
2022/02/05 18:54:24;;;;;;;24.25;3.17;;;;;;;;;;4841897;29;20379;-77
2022/02/05 18:56:53;;;;;;;22.30;4.00;;;;;;;;;;4839161;29;20061;-78
2022/02/05 18:59:22;;;;;;;38.67;5.35;;;;;;;;;;4855967;29;20056;-74
2022/02/05 20:18:19;;;;;;;32.40;5.57;;;;;;;;;;5042334;23;20034;31
2022/02/05 20:20:46;;;;;;;24.77;4.35;;;;;;;;;;4796078;29;20069;-84
2022/02/05 20:23:15;;;;;;;29.45;5.00;;;;;;;;;;4817244;29;20401;-75
2022/02/05 20:25:42;;;;;;;33.00;4.82;;;;;;;;;;4824492;29;20061;-80
2022/02/05 20:28:08;;;;;;;25.10;4.63;;;;;;;;;;4822327;29;20053;-76
2022/02/05 20:30:35;;;;;;;30.08;5.18;;;;;;;;;;4824978;29;20050;-78
2022/02/05 20:33:01;;;;;;;32.45;5.13;;;;;;;;;;4828355;29;20053;-81
2022/02/05 20:35:28;;;;;;;28.67;5.10;;;;;;;;;;4823808;29;20480;-75
2022/02/05 20:37:54;;;;;;;34.50;5.47;;;;;;;;;;4805586;29;20062;-77
2022/02/05 20:40:20;;;;;;;24.70;4.47;;;;;;;;;;4820788;29;20072;-77
2022/02/05 20:42:47;;;;;;;29.60;5.15;;;;;;;;;;4825481;29;20488;-76
2022/02/05 20:45:14;;;;;;;31.55;4.82;;;;;;;;;;4839541;29;20054;-86
2022/02/05 20:47:40;;;;;;;32.58;4.88;;;;;;;;;;4823712;29;20058;-76
2022/02/05 20:50:09;;;;;;;29.00;4.68;;;;;;;;;;4821120;29;20508;-80
2022/02/05 20:52:38;;;;;;;23.45;5.97;;;;;;;;;;4821579;29;20446;-76
2022/02/05 20:55:07;;;;;;;30.30;6.35;;;;;;;;;;4843407;29;20086;-81
2022/02/05 20:57:34;;;;;;;35.88;5.50;;;;;;;;;;4815159;29;20069;-80
2022/02/05 21:00:00;;;;;;;28.80;5.07;;;;;;;;;;4846365;29;20045;-82
2022/02/05 21:02:28;;;;;;;34.50;5.60;;;;;;;;;;4831861;29;20520;-77
2022/02/05 21:04:57;;;;;;;30.63;5.15;;;;;;;;;;4826770;29;20114;-76
2022/02/05 21:07:24;;;;;;;41.40;6.97;;;;;;;;;;4822967;29;20113;-76
2022/02/05 21:09:50;;;;;;;35.78;5.57;;;;;;;;;;4821091;29;20049;-77
2022/02/05 21:12:17;;;;;;;45.25;5.78;;;;;;;;;;4841927;29;20058;-78
2022/02/05 21:14:44;;;;;;;37.88;5.38;;;;;;;;;;4821721;29;20056;-78
2022/02/05 21:17:11;;;;;;;28.95;4.95;;;;;;;;;;4823221;29;20061;-80
2022/02/05 21:19:37;;;;;;;39.95;5.50;;;;;;;;;;4820562;29;20062;-76
2022/02/05 21:22:03;;;;;;;40.72;5.97;;;;;;;;;;4844429;29;20510;-74
2022/02/05 21:24:35;;;;;;;34.80;6.85;;;;;;;;;;4807520;29;20064;-81
2022/02/05 21:27:01;;;;;;;32.75;5.70;;;;;;;;;;4810755;29;20125;-74
2022/02/05 21:29:30;;;;;;;41.28;6.65;;;;;;;;;;4825053;29;20084;-76
2022/02/05 21:32:03;;;;;;;35.55;6.22;;;;;;;;;;4828540;29;20057;-75
2022/02/05 21:34:45;;;;;;;34.95;6.05;;;;;;;;;;4826383;29;20050;-79
2022/02/05 21:37:12;;;;;;;41.03;7.00;;;;;;;;;;4813253;29;20058;-77
2022/02/05 21:39:38;;;;;;;37.28;5.47;;;;;;;;;;4825278;29;20136;-76
2022/02/05 21:42:04;;;;;;;38.78;6.45;;;;;;;;;;4823628;29;20053;-77
2022/02/05 21:44:30;;;;;;;41.38;5.90;;;;;;;;;;4818992;29;20110;-81
2022/02/05 21:46:58;;;;;;;36.58;5.57;;;;;;;;;;4820804;29;20133;-78
2022/02/05 21:49:25;;;;;;;34.92;6.13;;;;;;;;;;4821537;29;20504;-77
2022/02/05 21:51:58;;;;;;;28.95;6.03;;;;;;;;;;4820129;29;20050;-78
2022/02/05 21:54:27;;;;;;;37.38;6.15;;;;;;;;;;4822186;29;20154;-78
2022/02/05 21:57:07;;;;;;;33.85;6.30;;;;;;;;;;4843376;29;20513;-76
2022/02/05 21:59:38;;;;;;;36.78;6.45;;;;;;;;;;4824203;29;20489;-76
2022/02/05 22:02:12;;;;;;;31.05;6.15;;;;;;;;;;4822734;29;20485;-78
2022/02/05 22:04:38;;;;;;;31.48;5.63;;;;;;;;;;4817648;29;20062;-77
2022/02/05 22:07:04;;;;;;;31.20;5.93;;;;;;;;;;4820220;29;20129;-79